Time;durP1;ratioP1;P1;durP2;ratioP2;P2;SDS_P1;SDS_P2;PMS_P1;PMS_P2;Temp;Humidity;BMP_temperature;BMP_pressure;BME280_temperature;BME280_humidity;BME280_pressure;Samples;Min_cycle;Max_cycle;Signal;HPM_P1;HPM_P2
2024/01/01 00:01:18;;;;;;;321.00;169.80;;;6.80;99.90;;;;;;5182184;28;20187;-51
2024/01/01 00:03:49;;;;;;;298.50;163.17;;;6.70;99.90;;;;;;5187517;28;20223;-49
2024/01/01 00:06:19;;;;;;;362.97;182.57;;;6.70;99.90;;;;;;5181770;28;20202;-49
2024/01/01 00:08:50;;;;;;;318.73;170.37;;;6.90;99.90;;;;;;5184112;28;20254;-48
2024/01/01 00:11:20;;;;;;;312.03;165.20;;;6.80;99.90;;;;;;5201108;28;20294;-50
2024/01/01 00:13:51;;;;;;;284.10;150.97;;;6.60;99.90;;;;;;5201464;28;20643;-48
2024/01/01 00:16:22;;;;;;;310.77;167.10;;;6.60;99.90;;;;;;5175679;28;20231;-49
2024/01/01 00:18:52;;;;;;;346.47;185.10;;;6.60;99.90;;;;;;5164821;28;20306;-49
2024/01/01 00:21:23;;;;;;;379.80;205.20;;;6.40;99.90;;;;;;5182662;28;20214;-50
2024/01/01 00:23:54;;;;;;;367.30;185.73;;;6.40;99.90;;;;;;5202305;28;20208;-49
2024/01/01 00:26:24;;;;;;;326.83;180.70;;;6.40;99.90;;;;;;5184549;28;20759;-48
2024/01/01 00:28:55;;;;;;;353.87;178.97;;;6.40;99.90;;;;;;5199898;28;20215;-50
2024/01/01 00:31:25;;;;;;;510.13;327.00;;;6.60;99.90;;;;;;5198298;28;20280;-50
2024/01/01 00:33:56;;;;;;;405.43;223.50;;;6.50;99.90;;;;;;5201125;28;20624;-50
2024/01/01 00:36:27;;;;;;;374.60;209.50;;;6.30;99.90;;;;;;5198894;28;20253;-49
2024/01/01 00:38:57;;;;;;;376.60;206.37;;;6.30;99.90;;;;;;5200331;28;20280;-51
2024/01/01 00:41:28;;;;;;;318.80;172.27;;;6.30;99.90;;;;;;5198040;28;20215;-49
2024/01/01 00:43:58;;;;;;;383.33;198.67;;;6.40;99.90;;;;;;5182755;28;20192;-49
2024/01/01 00:46:29;;;;;;;246.47;129.60;;;6.20;99.90;;;;;;5201170;28;20547;-49
2024/01/01 00:49:00;;;;;;;235.40;119.53;;;6.30;99.90;;;;;;5183388;28;20290;-48
2024/01/01 00:51:30;;;;;;;377.93;200.23;;;6.40;99.90;;;;;;5182948;28;20218;-49
2024/01/01 00:54:01;;;;;;;231.50;118.57;;;6.50;99.90;;;;;;5196601;28;20184;-49
2024/01/01 00:56:31;;;;;;;169.00;93.10;;;6.30;99.90;;;;;;5206402;28;20210;-51
2024/01/01 00:59:02;;;;;;;172.83;86.10;;;6.50;99.90;;;;;;5201957;28;20278;-49
2024/01/01 01:01:33;;;;;;;226.87;112.03;;;6.50;99.90;;;;;;5194293;28;20196;-48
2024/01/01 01:04:04;;;;;;;249.13;132.33;;;6.50;99.90;;;;;;5192526;28;20543;-51
2024/01/01 01:06:34;;;;;;;129.03;67.27;;;6.20;99.90;;;;;;5199671;28;20199;-50
2024/01/01 01:09:05;;;;;;;140.83;69.97;;;6.20;99.90;;;;;;5198373;28;20558;-48
2024/01/01 01:11:38;;;;;;;174.47;84.23;;;6.30;99.90;;;;;;5197074;28;20229;-50
2024/01/01 01:14:08;;;;;;;203.77;98.93;;;6.20;99.90;;;;;;5180594;28;20192;-48
2024/01/01 01:16:39;;;;;;;305.13;156.17;;;6.20;99.90;;;;;;5178162;28;20446;-49
2024/01/01 01:19:09;;;;;;;257.20;123.43;;;6.10;99.90;;;;;;5200835;28;20192;-50
2024/01/01 01:21:40;;;;;;;300.27;156.17;;;5.90;99.90;;;;;;5166617;28;20191;-50
2024/01/01 01:24:15;;;;;;;118.80;64.70;;;5.90;99.90;;;;;;5199268;28;22120;-49
2024/01/01 01:26:46;;;;;;;170.90;85.77;;;5.90;99.90;;;;;;5196612;28;20277;-51
2024/01/01 01:29:17;;;;;;;121.80;53.30;;;5.80;99.90;;;;;;5200790;28;20490;-49
2024/01/01 01:31:48;;;;;;;114.13;58.13;;;5.80;99.90;;;;;;5180536;28;20208;-48
2024/01/01 01:34:18;;;;;;;70.83;38.63;;;5.90;99.90;;;;;;5179186;28;20466;-49
2024/01/01 01:36:49;;;;;;;114.23;51.57;;;5.90;99.90;;;;;;5198016;28;20229;-49
2024/01/01 01:39:19;;;;;;;96.70;47.73;;;6.20;99.90;;;;;;5181225;28;20216;-49
2024/01/01 01:41:50;;;;;;;93.53;45.23;;;6.30;99.90;;;;;;5197977;28;20715;-49
2024/01/01 01:44:21;;;;;;;73.33;33.77;;;6.30;99.90;;;;;;5193928;28;20183;-48
2024/01/01 01:46:52;;;;;;;66.03;33.77;;;6.40;99.90;;;;;;5201367;28;20563;-50
2024/01/01 01:49:22;;;;;;;52.00;29.57;;;6.30;99.90;;;;;;5183848;28;20231;-49
2024/01/01 01:51:54;;;;;;;53.40;30.50;;;6.20;99.90;;;;;;5181133;28;20283;-49
2024/01/01 01:54:25;;;;;;;135.83;64.70;;;6.20;99.90;;;;;;5172903;28;20194;-48
2024/01/01 01:56:55;;;;;;;75.63;41.20;;;6.20;99.90;;;;;;5197782;28;20427;-50
2024/01/01 01:59:26;;;;;;;57.27;31.33;;;6.10;99.90;;;;;;5199249;28;20244;-50
2024/01/01 02:01:57;;;;;;;84.23;32.50;;;5.90;99.90;;;;;;5196501;28;20192;-49
2024/01/01 02:04:29;;;;;;;133.40;37.27;;;6.10;99.90;;;;;;5183657;28;20230;-50
2024/01/01 02:06:59;;;;;;;42.60;23.40;;;6.20;99.90;;;;;;5197296;28;20510;-49
2024/01/01 02:09:31;;;;;;;49.27;25.43;;;6.20;99.90;;;;;;5181830;28;20580;-50
2024/01/01 02:12:01;;;;;;;62.47;25.00;;;6.10;99.90;;;;;;5183885;28;20241;-50
2024/01/01 02:14:32;;;;;;;78.80;35.20;;;6.20;99.90;;;;;;5184626;28;20749;-49
2024/01/01 02:17:03;;;;;;;46.53;28.13;;;6.10;99.90;;;;;;5197332;28;20188;-49
2024/01/01 02:19:33;;;;;;;45.00;27.10;;;6.10;99.90;;;;;;5168097;28;20208;-49
2024/01/01 02:22:04;;;;;;;48.00;27.33;;;6.00;99.90;;;;;;5202185;28;20211;-49
2024/01/01 02:24:35;;;;;;;52.40;28.27;;;5.90;99.90;;;;;;5196978;28;20208;-49
2024/01/01 02:27:06;;;;;;;46.33;25.20;;;5.90;99.90;;;;;;5203224;28;20225;-49
2024/01/01 02:29:36;;;;;;;44.97;24.10;;;5.90;99.90;;;;;;5183416;28;20196;-49
2024/01/01 02:32:07;;;;;;;52.70;28.23;;;5.80;99.90;;;;;;5183770;28;20481;-50
2024/01/01 02:34:37;;;;;;;46.37;24.90;;;6.00;99.90;;;;;;5185886;28;20194;-49
2024/01/01 02:37:08;;;;;;;47.77;25.33;;;5.80;99.90;;;;;;5206231;28;20191;-49
2024/01/01 02:39:39;;;;;;;51.83;24.67;;;5.80;99.90;;;;;;5204455;28;20210;-50
2024/01/01 02:42:09;;;;;;;63.90;36.13;;;5.80;99.90;;;;;;5184893;28;20298;-49
2024/01/01 02:44:40;;;;;;;52.73;29.10;;;5.90;99.90;;;;;;5194358;28;20178;-48
2024/01/01 02:47:10;;;;;;;48.20;26.43;;;6.00;99.90;;;;;;5170133;28;20245;-50
2024/01/01 02:49:41;;;;;;;38.90;21.30;;;5.90;99.90;;;;;;5206557;28;20310;-48
2024/01/01 02:52:12;;;;;;;45.23;19.87;;;5.80;99.90;;;;;;5202177;28;20566;-49
2024/01/01 02:54:42;;;;;;;34.03;20.07;;;5.70;99.90;;;;;;5209239;28;20190;-49
2024/01/01 02:57:13;;;;;;;47.70;17.83;;;5.80;99.90;;;;;;5188403;28;20279;-49
2024/01/01 02:59:43;;;;;;;46.27;17.73;;;5.60;99.90;;;;;;5186568;28;20694;-49
2024/01/01 03:02:15;;;;;;;29.40;15.93;;;5.80;99.90;;;;;;5183617;28;20200;-49
2024/01/01 03:04:46;;;;;;;30.33;17.30;;;5.70;99.90;;;;;;5201565;28;20218;-50
2024/01/01 03:07:16;;;;;;;33.43;17.57;;;5.70;99.90;;;;;;5182167;28;20505;-49
2024/01/01 03:09:49;;;;;;;35.60;16.77;;;5.70;99.90;;;;;;5170358;28;20218;-48
2024/01/01 03:12:20;;;;;;;27.73;15.17;;;5.60;99.90;;;;;;5185760;28;20543;-50
2024/01/01 03:14:50;;;;;;;27.23;15.40;;;5.80;99.90;;;;;;5200523;28;20430;-48
2024/01/01 03:17:21;;;;;;;35.60;19.80;;;5.70;99.90;;;;;;5202587;28;20539;-50
2024/01/01 03:19:51;;;;;;;30.87;17.20;;;5.50;99.90;;;;;;5200848;28;20213;-49
2024/01/01 03:22:22;;;;;;;33.40;17.37;;;5.50;99.90;;;;;;5199401;28;20679;-48
2024/01/01 03:24:53;;;;;;;24.80;15.70;;;5.50;99.90;;;;;;5201396;28;20233;-48
2024/01/01 03:27:23;;;;;;;37.73;19.13;;;5.40;99.90;;;;;;5210965;28;20244;-48
2024/01/01 03:29:54;;;;;;;36.77;17.23;;;5.30;99.90;;;;;;5186202;28;20404;-47
2024/01/01 03:32:25;;;;;;;46.43;16.17;;;5.40;99.90;;;;;;5200149;28;20219;-48
2024/01/01 03:34:55;;;;;;;38.73;20.83;;;5.30;99.90;;;;;;5201615;28;20180;-49
2024/01/01 03:37:26;;;;;;;37.10;18.33;;;5.40;99.90;;;;;;5197715;28;20194;-51
2024/01/01 03:39:56;;;;;;;54.67;25.60;;;5.40;99.90;;;;;;5183319;28;20288;-49
2024/01/01 03:42:27;;;;;;;33.77;15.13;;;5.30;99.90;;;;;;5196235;28;20195;-49
2024/01/01 03:44:58;;;;;;;56.73;23.90;;;5.60;99.90;;;;;;5204589;28;20284;-48
2024/01/01 03:47:28;;;;;;;36.07;18.30;;;5.70;99.90;;;;;;5199366;28;20186;-48
2024/01/01 03:49:59;;;;;;;31.47;15.87;;;5.70;99.90;;;;;;5201930;28;20219;-48
2024/01/01 03:52:30;;;;;;;33.63;17.17;;;5.80;99.90;;;;;;5197322;28;20202;-48
2024/01/01 03:55:00;;;;;;;24.50;13.83;;;5.60;99.90;;;;;;5184688;28;20680;-49
2024/01/01 03:57:34;;;;;;;38.43;21.67;;;5.60;99.90;;;;;;5182790;28;20184;-50
2024/01/01 04:00:06;;;;;;;35.50;18.37;;;5.60;99.90;;;;;;5189071;28;20214;-49
2024/01/01 04:02:36;;;;;;;30.83;13.70;;;5.60;99.90;;;;;;5199929;28;20985;-50
2024/01/01 04:05:08;;;;;;;26.97;13.43;;;5.60;99.90;;;;;;5200718;28;20481;-49
2024/01/01 04:07:39;;;;;;;27.70;13.00;;;5.50;99.90;;;;;;5182814;28;20187;-49
2024/01/01 04:10:10;;;;;;;26.30;14.73;;;5.50;99.90;;;;;;5183423;28;20841;-48
2024/01/01 04:12:41;;;;;;;27.13;14.37;;;5.70;99.90;;;;;;5184278;28;20191;-49
2024/01/01 04:15:12;;;;;;;27.97;12.67;;;5.60;99.90;;;;;;5184289;28;20434;-49
2024/01/01 04:17:42;;;;;;;30.30;12.33;;;5.50;99.90;;;;;;5196349;28;20282;-48
2024/01/01 04:20:13;;;;;;;39.30;18.77;;;5.50;99.90;;;;;;5184474;28;20745;-49
2024/01/01 04:22:45;;;;;;;389.47;180.40;;;5.30;99.90;;;;;;5201731;28;20203;-48
2024/01/01 04:25:16;;;;;;;1043.07;705.47;;;5.50;99.90;;;;;;5182847;28;20667;-48
2024/01/01 04:27:47;;;;;;;519.67;249.73;;;5.60;99.90;;;;;;5204174;28;20533;-48
2024/01/01 04:30:17;;;;;;;535.03;248.60;;;5.60;99.90;;;;;;5201124;28;20214;-48
2024/01/01 04:32:48;;;;;;;203.73;78.10;;;5.60;99.90;;;;;;5182921;28;20445;-49
2024/01/01 04:35:19;;;;;;;97.90;37.00;;;5.70;99.90;;;;;;5183641;28;20182;-50
2024/01/01 04:37:49;;;;;;;52.53;21.90;;;5.60;99.90;;;;;;5199345;28;20206;-50
2024/01/01 04:40:20;;;;;;;33.97;14.60;;;5.70;99.90;;;;;;5197046;28;22541;-49
2024/01/01 04:42:53;;;;;;;27.77;14.77;;;5.80;99.90;;;;;;5180637;28;20191;-48
2024/01/01 04:45:24;;;;;;;34.53;15.50;;;5.80;99.90;;;;;;5184009;28;20787;-48
2024/01/01 04:47:54;;;;;;;21.40;13.17;;;5.70;99.90;;;;;;5182932;28;20468;-50
2024/01/01 04:50:25;;;;;;;24.73;13.43;;;5.90;99.90;;;;;;5199825;28;20238;-48
2024/01/01 04:52:56;;;;;;;28.27;13.37;;;5.90;99.90;;;;;;5184022;28;20261;-48
2024/01/01 04:55:26;;;;;;;34.73;14.97;;;5.90;99.90;;;;;;5196017;28;20262;-49
2024/01/01 04:57:57;;;;;;;30.67;14.53;;;5.90;99.90;;;;;;5181472;28;20201;-47
2024/01/01 05:00:27;;;;;;;27.07;13.33;;;5.90;99.90;;;;;;5203635;28;20203;-48
2024/01/01 05:02:58;;;;;;;33.17;13.80;;;6.10;99.90;;;;;;5201757;28;20253;-49
2024/01/01 05:05:28;;;;;;;28.20;14.03;;;6.10;99.90;;;;;;5200859;28;20198;-49
2024/01/01 05:07:59;;;;;;;37.90;14.90;;;6.00;99.90;;;;;;5183250;28;20222;-48
2024/01/01 05:10:30;;;;;;;28.63;14.03;;;6.30;99.90;;;;;;5202069;28;26881;-51
2024/01/01 05:13:00;;;;;;;20.97;13.27;;;6.10;99.90;;;;;;5198325;28;20194;-48
2024/01/01 05:15:31;;;;;;;27.83;13.67;;;6.10;99.90;;;;;;5203634;28;20659;-48
2024/01/01 05:18:02;;;;;;;24.53;12.90;;;6.00;99.90;;;;;;5201229;28;20191;-49
2024/01/01 05:20:33;;;;;;;26.00;13.00;;;5.90;99.90;;;;;;5187129;28;20278;-52
2024/01/01 05:23:04;;;;;;;32.07;13.20;;;5.90;99.90;;;;;;5189031;28;20191;-48
2024/01/01 05:25:35;;;;;;;30.10;11.93;;;6.00;99.90;;;;;;5184977;28;20442;-54
2024/01/01 05:28:08;;;;;;;18.43;11.77;;;5.90;99.90;;;;;;5200173;28;20259;-50
2024/01/01 05:30:39;;;;;;;35.00;14.10;;;6.00;99.90;;;;;;5201046;28;20464;-53
2024/01/01 05:33:10;;;;;;;27.93;12.20;;;5.90;99.90;;;;;;5197951;28;20426;-47
2024/01/01 05:35:40;;;;;;;22.43;12.13;;;5.90;99.90;;;;;;5182862;28;20442;-48
2024/01/01 05:38:11;;;;;;;16.73;9.70;;;5.90;99.90;;;;;;5199873;28;20195;-49
2024/01/01 05:40:44;;;;;;;19.40;11.17;;;5.90;99.90;;;;;;5196783;28;20238;-47
2024/01/01 05:43:14;;;;;;;23.07;12.20;;;5.90;99.90;;;;;;5199201;28;20725;-47
2024/01/01 05:45:45;;;;;;;17.47;11.37;;;5.90;99.90;;;;;;5183664;28;20446;-46
2024/01/01 05:48:16;;;;;;;27.00;11.90;;;5.90;99.90;;;;;;5201952;28;20536;-47
2024/01/01 05:50:46;;;;;;;20.57;11.03;;;5.90;99.90;;;;;;5201499;28;20211;-47
2024/01/01 05:53:17;;;;;;;20.60;11.37;;;5.90;99.90;;;;;;5184632;28;20183;-46
2024/01/01 05:55:47;;;;;;;24.07;11.10;;;5.90;99.90;;;;;;5207683;28;20187;-52
2024/01/01 05:58:18;;;;;;;14.87;8.97;;;5.90;99.90;;;;;;5188664;28;20263;-48
2024/01/01 06:00:49;;;;;;;21.67;10.87;;;6.00;99.90;;;;;;5187981;28;20185;-51
2024/01/01 06:03:20;;;;;;;20.60;10.33;;;6.00;99.90;;;;;;5189640;28;20184;-47
2024/01/01 06:05:50;;;;;;;19.77;11.47;;;5.90;99.90;;;;;;5207364;28;20188;-46
2024/01/01 06:08:21;;;;;;;16.43;10.43;;;5.90;99.90;;;;;;5172865;28;20461;-47
2024/01/01 06:10:51;;;;;;;16.30;9.80;;;5.90;99.90;;;;;;5184066;28;20227;-46
2024/01/01 06:13:24;;;;;;;20.57;11.53;;;5.90;99.90;;;;;;5204546;28;20234;-46
2024/01/01 06:15:54;;;;;;;18.00;10.47;;;6.00;99.90;;;;;;5189744;28;20184;-49
2024/01/01 06:18:26;;;;;;;19.23;10.90;;;6.10;99.90;;;;;;5207861;28;20449;-47
2024/01/01 06:20:57;;;;;;;18.03;10.23;;;6.20;99.90;;;;;;5203832;28;20190;-56
2024/01/01 06:23:27;;;;;;;17.83;10.10;;;6.20;99.90;;;;;;5188521;28;20433;-47
2024/01/01 06:25:58;;;;;;;13.97;9.53;;;6.10;99.90;;;;;;5201778;28;20188;-51
2024/01/01 06:28:29;;;;;;;16.67;9.97;;;6.10;99.90;;;;;;5203768;28;20204;-46
2024/01/01 06:31:00;;;;;;;17.93;9.60;;;6.00;99.90;;;;;;5186152;28;20562;-48
2024/01/01 06:33:31;;;;;;;21.53;10.63;;;5.90;99.90;;;;;;5201701;28;20204;-47
2024/01/01 06:36:01;;;;;;;20.60;10.43;;;5.90;99.90;;;;;;5186883;28;20176;-47
2024/01/01 06:38:32;;;;;;;15.70;10.17;;;6.10;99.90;;;;;;5205124;28;20529;-48
2024/01/01 06:41:03;;;;;;;19.03;9.93;;;6.10;99.90;;;;;;5188363;28;20188;-48
2024/01/01 06:43:33;;;;;;;13.30;9.10;;;5.90;99.90;;;;;;5188312;28;20198;-47
2024/01/01 06:46:04;;;;;;;19.17;8.67;;;5.90;99.90;;;;;;5190533;28;20465;-47
2024/01/01 06:48:35;;;;;;;19.67;9.20;;;6.10;99.90;;;;;;5188953;28;20211;-47
2024/01/01 06:51:10;;;;;;;13.20;8.17;;;6.00;99.90;;;;;;5174838;28;20531;-47
2024/01/01 06:53:41;;;;;;;11.27;7.27;;;6.10;99.90;;;;;;5189465;28;20179;-47
2024/01/01 06:56:11;;;;;;;12.43;7.27;;;6.00;99.90;;;;;;5207334;28;20485;-50
2024/01/01 06:58:42;;;;;;;28.17;7.87;;;6.10;99.90;;;;;;5197080;28;20200;-51
2024/01/01 07:01:13;;;;;;;12.00;8.27;;;6.10;99.90;;;;;;5188607;28;20184;-52
2024/01/01 07:03:44;;;;;;;12.07;7.57;;;6.20;99.90;;;;;;5189487;28;20942;-47
2024/01/01 07:06:14;;;;;;;18.40;7.97;;;6.30;99.90;;;;;;5203211;28;20355;-45
2024/01/01 07:08:45;;;;;;;15.27;7.70;;;6.30;99.90;;;;;;5172174;28;20215;-47
2024/01/01 07:11:16;;;;;;;13.83;7.57;;;6.30;99.90;;;;;;5200652;28;20207;-48
2024/01/01 07:13:47;;;;;;;13.10;7.93;;;6.20;99.90;;;;;;5201188;28;20199;-47
2024/01/01 07:16:17;;;;;;;10.80;6.53;;;6.10;99.90;;;;;;5201977;28;20946;-51
2024/01/01 07:18:48;;;;;;;12.87;6.50;;;6.00;99.90;;;;;;5203328;28;20211;-53
2024/01/01 07:21:19;;;;;;;15.23;7.33;;;6.00;99.90;;;;;;5202085;28;20191;-48
2024/01/01 07:23:49;;;;;;;8.97;6.70;;;6.30;99.90;;;;;;5189642;28;20539;-47
2024/01/01 07:26:20;;;;;;;7.13;5.03;;;6.10;99.90;;;;;;5183743;28;20195;-52
2024/01/01 07:28:50;;;;;;;13.00;7.63;;;6.10;99.90;;;;;;5203805;28;20221;-47
2024/01/01 07:31:21;;;;;;;10.63;6.37;;;6.30;99.90;;;;;;5200733;28;20250;-46
2024/01/01 07:33:52;;;;;;;9.70;7.00;;;6.30;99.90;;;;;;5185829;28;20243;-49
2024/01/01 07:36:23;;;;;;;14.63;7.60;;;6.30;99.90;;;;;;5200986;28;20803;-46
2024/01/01 07:38:53;;;;;;;12.90;6.63;;;6.10;99.90;;;;;;5198821;28;20208;-47
2024/01/01 07:41:24;;;;;;;9.50;7.20;;;6.00;99.90;;;;;;5202069;28;20218;-48
2024/01/01 07:43:54;;;;;;;7.93;6.20;;;6.00;99.90;;;;;;5185571;28;20192;-47
2024/01/01 07:46:25;;;;;;;20.13;9.33;;;5.90;99.90;;;;;;5200188;28;20332;-47
2024/01/01 07:48:56;;;;;;;16.53;7.07;;;5.90;99.90;;;;;;5186199;28;20219;-46
2024/01/01 07:51:26;;;;;;;14.30;7.60;;;6.20;99.90;;;;;;5198766;28;20682;-47
2024/01/01 07:53:57;;;;;;;13.97;5.57;;;6.40;99.90;;;;;;5185936;28;20171;-46
2024/01/01 07:56:28;;;;;;;14.03;6.60;;;6.50;99.90;;;;;;5201922;28;20176;-47
2024/01/01 07:58:59;;;;;;;18.80;10.67;;;6.80;99.90;;;;;;5182699;28;20203;-47
2024/01/01 08:01:29;;;;;;;13.73;7.40;;;7.10;99.90;;;;;;5182211;28;20448;-47
2024/01/01 08:04:00;;;;;;;8.00;5.50;;;7.10;99.90;;;;;;5188838;28;20198;-47
2024/01/01 08:06:30;;;;;;;10.63;5.40;;;7.00;99.90;;;;;;5184808;28;20551;-49
2024/01/01 08:09:01;;;;;;;8.83;5.07;;;6.90;99.90;;;;;;5184858;28;20249;-48
2024/01/01 08:11:32;;;;;;;11.77;7.23;;;6.90;99.90;;;;;;5201979;28;20286;-48
2024/01/01 08:14:03;;;;;;;12.13;6.60;;;6.90;99.90;;;;;;5171023;28;20538;-46
2024/01/01 08:16:34;;;;;;;6.67;4.87;;;6.90;99.90;;;;;;5201416;28;20234;-48
2024/01/01 08:19:04;;;;;;;10.13;4.60;;;6.90;99.90;;;;;;5186963;28;20763;-49
2024/01/01 08:21:35;;;;;;;11.07;5.50;;;7.00;99.90;;;;;;5185527;28;20474;-47
2024/01/01 08:24:07;;;;;;;4.70;4.30;;;7.00;99.90;;;;;;5198313;28;20235;-48
2024/01/01 08:26:38;;;;;;;7.33;4.40;;;7.10;99.90;;;;;;5200490;28;20589;-47
2024/01/01 08:29:09;;;;;;;12.93;4.30;;;7.10;99.90;;;;;;5199687;28;20213;-46
2024/01/01 08:31:39;;;;;;;5.63;3.80;;;7.20;99.90;;;;;;5204009;28;20207;-46
2024/01/01 08:34:10;;;;;;;12.40;4.83;;;7.20;99.90;;;;;;5184355;28;20521;-47
2024/01/01 08:36:40;;;;;;;8.97;4.00;;;7.30;99.90;;;;;;5186250;28;20183;-47
2024/01/01 08:39:11;;;;;;;10.40;4.03;;;7.30;99.90;;;;;;5183352;28;20203;-47
2024/01/01 08:41:43;;;;;;;11.13;4.57;;;7.40;99.90;;;;;;5203163;28;20261;-50
2024/01/01 08:44:14;;;;;;;6.13;4.10;;;7.40;99.90;;;;;;5202750;28;20195;-48
2024/01/01 08:46:44;;;;;;;4.70;3.30;;;7.50;99.90;;;;;;5197244;28;20938;-47
2024/01/01 08:49:15;;;;;;;11.10;4.80;;;7.60;99.90;;;;;;5184162;28;20298;-50
2024/01/01 08:51:46;;;;;;;6.30;4.37;;;7.70;99.90;;;;;;5185679;28;20210;-48
2024/01/01 08:54:17;;;;;;;13.53;4.07;;;7.70;99.90;;;;;;5202121;28;20175;-47
2024/01/01 08:56:48;;;;;;;8.23;3.17;;;7.70;99.90;;;;;;5187788;28;20188;-48
2024/01/01 08:59:19;;;;;;;9.17;3.93;;;7.80;99.90;;;;;;5204216;28;20466;-47
2024/01/01 09:01:49;;;;;;;4.30;3.87;;;7.90;99.90;;;;;;5184959;28;20183;-48
2024/01/01 09:04:20;;;;;;;5.30;3.87;;;7.90;99.90;;;;;;5199083;28;20195;-47
2024/01/01 09:06:51;;;;;;;13.60;3.90;;;8.10;99.90;;;;;;5187319;28;20933;-49
2024/01/01 09:09:22;;;;;;;3.93;3.50;;;8.10;99.90;;;;;;5180908;28;20247;-47
2024/01/01 09:11:53;;;;;;;5.83;4.20;;;8.20;99.90;;;;;;5182156;28;20307;-48
2024/01/01 09:14:23;;;;;;;9.00;5.00;;;8.10;99.90;;;;;;5201151;28;20191;-46
2024/01/01 09:16:54;;;;;;;5.67;3.47;;;8.10;99.90;;;;;;5204585;28;20210;-49
2024/01/01 09:19:24;;;;;;;5.30;3.27;;;8.20;99.90;;;;;;5200409;28;20204;-51
2024/01/01 09:21:55;;;;;;;3.83;3.43;;;8.20;99.90;;;;;;5197461;28;20188;-50
2024/01/01 09:24:26;;;;;;;4.70;3.37;;;8.20;99.90;;;;;;5197275;28;20195;-47
2024/01/01 09:26:58;;;;;;;11.27;3.87;;;8.30;99.90;;;;;;5185329;28;20190;-47
2024/01/01 09:29:29;;;;;;;11.90;4.73;;;8.30;99.90;;;;;;5183930;28;20207;-48
2024/01/01 09:32:00;;;;;;;3.17;2.93;;;8.30;99.90;;;;;;5202929;28;20470;-47
2024/01/01 09:34:30;;;;;;;5.63;3.40;;;8.30;99.90;;;;;;5203197;28;20182;-50
2024/01/01 09:37:01;;;;;;;4.27;3.80;;;8.30;99.90;;;;;;5201099;28;20175;-53
2024/01/01 09:39:32;;;;;;;6.53;3.57;;;8.30;99.90;;;;;;5166312;28;20349;-49
2024/01/01 09:42:04;;;;;;;8.80;4.13;;;8.20;99.90;;;;;;5175963;28;20615;-54
2024/01/01 09:44:36;;;;;;;6.07;3.57;;;8.20;99.90;;;;;;5193851;28;20183;-49
2024/01/01 09:47:07;;;;;;;3.80;3.40;;;8.10;99.90;;;;;;5202330;28;20446;-47
2024/01/01 09:49:38;;;;;;;3.90;2.67;;;8.10;99.90;;;;;;5169469;28;20454;-48
2024/01/01 09:52:14;;;;;;;4.60;3.27;;;8.20;99.90;;;;;;5205581;28;20310;-49
2024/01/01 09:54:45;;;;;;;5.83;3.70;;;8.00;99.90;;;;;;5205555;28;20205;-46
2024/01/01 09:57:15;;;;;;;11.07;4.53;;;8.00;99.90;;;;;;5188319;28;20442;-46
2024/01/01 09:59:46;;;;;;;6.23;3.67;;;7.90;99.90;;;;;;5202132;28;20199;-51
2024/01/01 10:02:21;;;;;;;7.70;3.10;;;7.90;99.90;;;;;;5182710;28;20562;-46
2024/01/01 10:04:52;;;;;;;5.73;3.13;;;7.90;99.90;;;;;;5186656;28;20231;-48
2024/01/01 10:07:28;;;;;;;6.07;3.50;;;7.90;99.90;;;;;;5202020;28;20903;-47
2024/01/01 10:09:59;;;;;;;6.60;3.70;;;8.00;99.90;;;;;;5185050;28;20542;-51
2024/01/01 10:12:31;;;;;;;3.33;2.90;;;7.90;99.90;;;;;;5201958;28;20469;-49
2024/01/01 10:15:02;;;;;;;7.80;3.97;;;7.90;99.90;;;;;;5204031;28;20199;-52
2024/01/01 10:17:32;;;;;;;4.73;3.20;;;7.90;99.90;;;;;;5204089;28;20473;-53
2024/01/01 10:20:03;;;;;;;5.40;3.47;;;7.80;99.90;;;;;;5170818;28;20207;-46
2024/01/01 10:22:34;;;;;;;6.67;4.07;;;7.70;99.90;;;;;;5188213;28;20187;-47
2024/01/01 10:25:14;;;;;;;4.93;3.27;;;7.90;99.90;;;;;;5199946;28;20187;-48
2024/01/01 10:27:46;;;;;;;7.73;3.47;;;7.80;99.90;;;;;;5183900;28;20196;-52
2024/01/01 10:30:16;;;;;;;3.70;3.27;;;7.80;99.90;;;;;;5183731;28;20461;-47
2024/01/01 10:32:48;;;;;;;6.70;3.50;;;7.80;99.90;;;;;;5183316;28;20442;-50
2024/01/01 10:35:19;;;;;;;5.57;3.90;;;7.90;99.90;;;;;;5186641;28;20187;-47
2024/01/01 10:37:50;;;;;;;4.73;3.70;;;8.00;99.90;;;;;;5199061;28;20529;-47
2024/01/01 10:40:21;;;;;;;4.97;3.70;;;8.00;99.90;;;;;;5188385;28;20998;-48
2024/01/01 10:42:52;;;;;;;4.97;3.47;;;8.00;99.90;;;;;;5206187;28;20518;-47
2024/01/01 10:45:22;;;;;;;9.37;4.17;;;8.00;99.90;;;;;;5206504;28;20192;-49
2024/01/01 10:47:57;;;;;;;6.97;4.10;;;8.00;99.90;;;;;;5172337;28;20504;-49
2024/01/01 10:50:32;;;;;;;7.27;4.13;;;7.90;99.90;;;;;;5186844;28;20206;-48
2024/01/01 10:53:20;;;;;;;6.50;3.60;;;8.00;99.90;;;;;;5184488;28;20524;-48
2024/01/01 10:56:25;;;;;;;9.53;4.30;;;7.90;99.90;;;;;;5180902;28;21049;-47
2024/01/01 10:59:20;;;;;;;9.80;4.03;;;7.90;99.90;;;;;;5195052;28;20508;-47
2024/01/01 11:01:53;;;;;;;8.77;4.37;;;7.90;99.90;;;;;;5204049;28;20510;-49
2024/01/01 11:04:24;;;;;;;4.33;3.03;;;7.90;99.90;;;;;;5203537;28;20879;-47
2024/01/01 11:06:54;;;;;;;7.03;3.90;;;7.90;99.90;;;;;;5188181;28;20449;-47
2024/01/01 11:09:26;;;;;;;6.83;3.97;;;8.00;99.90;;;;;;5207515;28;20478;-49
2024/01/01 11:11:57;;;;;;;10.33;4.37;;;8.00;99.90;;;;;;5188364;28;20204;-49
2024/01/01 11:14:37;;;;;;;3.60;3.03;;;8.00;99.90;;;;;;5189839;28;20479;-49
2024/01/01 11:17:09;;;;;;;5.30;3.60;;;8.00;99.90;;;;;;5203254;28;20567;-48
2024/01/01 11:19:46;;;;;;;14.60;4.07;;;8.00;99.90;;;;;;5194385;28;20458;-50
2024/01/01 11:22:29;;;;;;;8.80;3.27;;;8.00;99.90;;;;;;5192342;28;20793;-48
2024/01/01 11:25:00;;;;;;;9.50;3.60;;;8.00;99.90;;;;;;5190668;28;20537;-50
2024/01/01 11:27:35;;;;;;;15.97;4.50;;;8.10;99.90;;;;;;5194025;28;20549;-51
2024/01/01 11:30:07;;;;;;;5.00;3.47;;;8.10;99.90;;;;;;5187277;28;20462;-48
2024/01/01 11:32:38;;;;;;;10.53;4.20;;;8.10;99.90;;;;;;5201879;28;20430;-50
2024/01/01 11:35:12;;;;;;;6.77;4.07;;;8.10;99.90;;;;;;5207253;28;20552;-49
2024/01/01 11:37:44;;;;;;;11.00;4.40;;;8.10;99.90;;;;;;5198322;28;20237;-50
2024/01/01 11:40:15;;;;;;;9.93;5.03;;;8.10;99.90;;;;;;5202671;28;20553;-48
2024/01/01 11:42:45;;;;;;;9.53;4.47;;;8.10;99.90;;;;;;5186508;28;20545;-48
2024/01/01 11:45:17;;;;;;;10.47;4.77;;;8.10;99.90;;;;;;5201756;28;20238;-51
2024/01/01 11:47:48;;;;;;;9.90;4.53;;;8.10;99.90;;;;;;5194867;28;20228;-50
2024/01/01 11:50:20;;;;;;;4.93;4.13;;;8.00;99.90;;;;;;5183022;28;20841;-48
2024/01/01 11:53:00;;;;;;;6.00;4.03;;;8.00;99.90;;;;;;5208364;28;20512;-49
2024/01/01 11:55:30;;;;;;;6.77;3.90;;;8.00;99.90;;;;;;5190652;28;20785;-48
2024/01/01 11:58:01;;;;;;;13.00;4.17;;;8.10;99.90;;;;;;5198602;28;20434;-49
2024/01/01 12:00:32;;;;;;;11.53;4.93;;;8.20;99.90;;;;;;5175106;28;20607;-48
2024/01/01 12:03:03;;;;;;;9.37;4.70;;;8.30;99.90;;;;;;5206828;28;20208;-49
2024/01/01 12:05:34;;;;;;;11.63;4.37;;;8.30;99.90;;;;;;5185151;28;20496;-49
2024/01/01 12:08:12;;;;;;;5.40;3.83;;;8.40;99.90;;;;;;5206616;28;20921;-50
2024/01/01 12:10:42;;;;;;;10.47;5.40;;;8.30;99.90;;;;;;5192935;28;20202;-48
2024/01/01 12:13:14;;;;;;;5.20;3.60;;;8.40;99.90;;;;;;5172675;28;21070;-50
2024/01/01 12:15:48;;;;;;;7.60;4.00;;;8.40;99.90;;;;;;5204217;28;20215;-49
2024/01/01 12:18:18;;;;;;;6.13;4.60;;;8.50;99.90;;;;;;5208974;28;20443;-49
2024/01/01 12:20:49;;;;;;;9.13;5.07;;;8.50;99.90;;;;;;5203454;28;20450;-49
2024/01/01 12:23:24;;;;;;;6.53;4.83;;;8.60;99.90;;;;;;5183427;28;20192;-49
2024/01/01 12:26:03;;;;;;;10.03;3.53;;;8.60;99.90;;;;;;5204748;28;20270;-49
2024/01/01 12:28:37;;;;;;;14.53;5.57;;;8.60;99.90;;;;;;5205072;28;20465;-50
2024/01/01 12:31:08;;;;;;;9.07;5.13;;;8.70;99.90;;;;;;5188521;28;20588;-49
2024/01/01 12:33:49;;;;;;;9.77;4.20;;;8.70;99.90;;;;;;5204800;28;20982;-50
2024/01/01 12:36:20;;;;;;;7.83;4.40;;;8.70;99.90;;;;;;5189214;28;20191;-50
2024/01/01 12:38:51;;;;;;;6.10;4.03;;;8.70;99.90;;;;;;5186485;28;20469;-50
2024/01/01 12:41:21;;;;;;;8.83;3.93;;;8.80;99.90;;;;;;5204277;28;20446;-50
2024/01/01 12:43:52;;;;;;;14.60;4.50;;;8.80;99.90;;;;;;5195869;28;20215;-49
2024/01/01 12:46:23;;;;;;;10.07;3.70;;;8.90;99.90;;;;;;5184703;28;20183;-50
2024/01/01 12:48:53;;;;;;;5.87;3.43;;;8.90;99.90;;;;;;5196484;28;20269;-48
2024/01/01 12:51:25;;;;;;;15.30;5.30;;;8.90;99.90;;;;;;5188592;28;20222;-50
2024/01/01 12:53:57;;;;;;;9.27;3.40;;;8.90;99.90;;;;;;5202112;28;20187;-49
2024/01/01 12:56:28;;;;;;;8.17;2.70;;;8.80;99.90;;;;;;5185711;28;20438;-49
2024/01/01 12:58:58;;;;;;;7.30;3.60;;;8.70;99.90;;;;;;5200777;28;20455;-49
2024/01/01 13:01:29;;;;;;;6.57;2.60;;;8.60;99.90;;;;;;5193447;28;20184;-48
2024/01/01 13:03:59;;;;;;;2.67;2.47;;;8.60;99.90;;;;;;5174787;28;20656;-49